Time;durP1;ratioP1;P1;durP2;ratioP2;P2;SDS_P1;SDS_P2;PMS_P1;PMS_P2;Temp;Humidity;BMP_temperature;BMP_pressure;BME280_temperature;BME280_humidity;BME280_pressure;Samples;Min_cycle;Max_cycle;Signal;HPM_P1;HPM_P2
2021/11/09 00:01:59;;;;;;;11.82;5.03;;;12.30;90.90;;;;;;5098049;28;20429;-77
2021/11/09 00:04:36;;;;;;;14.68;5.25;;;12.40;90.90;;;;;;5103274;28;20036;-77
2021/11/09 00:07:10;;;;;;;10.70;5.30;;;12.30;90.90;;;;;;5095356;28;20762;-77
2021/11/09 00:09:56;;;;;;;12.30;5.07;;;12.40;90.90;;;;;;5096622;28;20482;-78
2021/11/09 00:12:27;;;;;;;10.75;4.55;;;12.30;90.80;;;;;;5104416;28;20035;-77
2021/11/09 00:14:55;;;;;;;11.77;4.85;;;12.30;90.70;;;;;;5099574;28;20558;-76
2021/11/09 00:17:21;;;;;;;15.75;5.55;;;12.30;90.70;;;;;;5096125;28;20024;-76
2021/11/09 00:19:46;;;;;;;13.63;4.72;;;12.20;90.70;;;;;;5098738;28;20483;-77
2021/11/09 00:22:12;;;;;;;11.68;4.65;;;12.20;90.70;;;;;;5105083;28;20054;-78
2021/11/09 00:24:38;;;;;;;13.00;4.90;;;12.30;90.80;;;;;;5108096;28;20028;-77
2021/11/09 00:27:03;;;;;;;18.48;4.35;;;12.20;90.80;;;;;;5109763;28;20072;-76
2021/11/09 00:29:29;;;;;;;13.23;4.95;;;12.20;90.80;;;;;;5080436;28;20368;-77
2021/11/09 00:31:55;;;;;;;12.50;4.90;;;12.20;90.80;;;;;;5110181;28;20114;-77
2021/11/09 00:34:21;;;;;;;11.50;5.55;;;12.20;90.80;;;;;;5111663;28;20027;-77
2021/11/09 00:36:47;;;;;;;11.25;4.22;;;12.20;90.80;;;;;;5096371;28;20032;-76
2021/11/09 00:39:13;;;;;;;8.75;4.53;;;12.20;90.80;;;;;;5110225;28;20413;-77
2021/11/09 00:41:39;;;;;;;13.02;4.72;;;12.20;90.70;;;;;;5096788;28;20032;-77
2021/11/09 00:44:05;;;;;;;9.07;4.25;;;12.20;90.70;;;;;;5100783;28;20032;-76
2021/11/09 00:46:31;;;;;;;7.85;4.05;;;12.10;90.70;;;;;;5100922;28;20123;-77
2021/11/09 00:49:00;;;;;;;15.73;5.10;;;12.10;90.70;;;;;;5107020;28;20119;-77
2021/11/09 00:51:25;;;;;;;13.23;4.65;;;12.10;90.70;;;;;;5095405;27;20131;-77
2021/11/09 00:53:51;;;;;;;11.05;5.50;;;12.10;90.70;;;;;;5107394;28;20131;-77
2021/11/09 00:56:17;;;;;;;9.38;4.30;;;12.10;90.70;;;;;;5111684;28;20089;-77
2021/11/09 00:58:43;;;;;;;13.68;4.82;;;12.00;90.60;;;;;;5111123;28;20028;-77
2021/11/09 01:01:09;;;;;;;7.72;3.70;;;12.10;90.70;;;;;;5094122;28;20101;-78
2021/11/09 01:03:35;;;;;;;7.63;4.22;;;12.00;90.70;;;;;;5093988;28;20028;-78
2021/11/09 01:06:00;;;;;;;9.43;4.63;;;12.10;90.90;;;;;;5105374;28;20063;-77
2021/11/09 01:08:26;;;;;;;13.50;3.92;;;12.10;90.70;;;;;;5102455;28;20052;-77
2021/11/09 01:10:54;;;;;;;11.38;4.10;;;12.00;90.70;;;;;;5094739;28;20040;-77
2021/11/09 01:13:26;;;;;;;7.97;3.75;;;12.10;90.70;;;;;;5112534;28;20039;-77
2021/11/09 01:15:54;;;;;;;11.00;3.88;;;12.00;90.60;;;;;;5098961;28;20487;-77
2021/11/09 01:18:32;;;;;;;13.27;4.40;;;12.00;90.60;;;;;;5105342;28;20028;-77
2021/11/09 01:20:59;;;;;;;7.32;3.65;;;12.00;90.60;;;;;;5106432;28;20032;-77
2021/11/09 01:23:25;;;;;;;9.88;3.97;;;12.00;90.60;;;;;;5099283;28;20050;-77
2021/11/09 01:25:52;;;;;;;10.95;3.70;;;11.90;90.60;;;;;;5109696;28;20081;-77
2021/11/09 01:28:18;;;;;;;10.13;3.60;;;12.00;90.60;;;;;;5096660;28;20395;-77
2021/11/09 01:30:44;;;;;;;6.68;3.28;;;11.90;90.60;;;;;;5104057;28;20035;-76
2021/11/09 01:33:10;;;;;;;8.95;3.38;;;11.90;90.50;;;;;;5105913;28;20493;-77
2021/11/09 01:35:40;;;;;;;11.85;4.32;;;11.90;90.50;;;;;;5093289;28;20044;-77
2021/11/09 01:38:07;;;;;;;9.85;3.45;;;11.90;90.50;;;;;;5103743;28;20035;-77
2021/11/09 01:40:33;;;;;;;8.95;3.60;;;11.90;90.50;;;;;;5098592;28;20057;-77
2021/11/09 01:43:00;;;;;;;12.38;3.75;;;11.80;90.50;;;;;;5109333;28;20518;-77
2021/11/09 01:45:26;;;;;;;7.63;3.72;;;11.80;90.50;;;;;;5106555;27;20040;-76
2021/11/09 01:47:53;;;;;;;13.02;3.67;;;11.80;90.50;;;;;;5100722;28;20043;-77
2021/11/09 01:50:26;;;;;;;12.77;3.88;;;11.80;90.50;;;;;;5107056;27;20084;-76
2021/11/09 01:52:52;;;;;;;11.13;3.97;;;11.80;90.50;;;;;;5092388;28;20035;-76
2021/11/09 01:55:21;;;;;;;10.10;3.88;;;11.70;90.50;;;;;;5097669;28;20039;-77
2021/11/09 01:57:48;;;;;;;9.65;4.28;;;11.70;90.50;;;;;;5093744;28;20024;-77
2021/11/09 02:00:21;;;;;;;16.58;4.18;;;11.70;90.50;;;;;;5104756;28;20027;-78
2021/11/09 02:02:47;;;;;;;11.57;4.35;;;11.70;90.50;;;;;;5105489;28;20070;-77
2021/11/09 02:05:14;;;;;;;11.45;3.58;;;11.70;90.50;;;;;;5099454;28;20089;-78
2021/11/09 02:07:47;;;;;;;16.83;3.78;;;11.70;90.50;;;;;;5104718;28;20027;-77
2021/11/09 02:10:12;;;;;;;11.95;4.15;;;11.70;90.50;;;;;;5097871;28;20137;-78
2021/11/09 02:12:39;;;;;;;10.48;4.20;;;11.70;90.50;;;;;;5092028;28;20102;-77
2021/11/09 02:15:07;;;;;;;12.27;4.03;;;11.70;90.50;;;;;;5102762;28;20060;-77
2021/11/09 02:17:35;;;;;;;17.88;4.22;;;11.70;90.40;;;;;;5105643;28;20073;-78
2021/11/09 02:20:02;;;;;;;12.25;3.50;;;11.70;90.40;;;;;;5102383;28;20027;-78
2021/11/09 02:22:32;;;;;;;13.52;5.18;;;11.70;90.40;;;;;;5095522;28;20427;-78
2021/11/09 02:24:57;;;;;;;12.10;4.25;;;11.70;90.40;;;;;;5103437;28;20028;-78
2021/11/09 02:27:23;;;;;;;10.65;3.90;;;11.70;90.40;;;;;;5104869;28;20462;-78
2021/11/09 02:29:48;;;;;;;11.10;5.05;;;11.60;90.40;;;;;;5098991;28;20036;-78
2021/11/09 02:32:14;;;;;;;7.70;3.55;;;11.60;90.30;;;;;;5097995;28;20027;-78
2021/11/09 02:34:40;;;;;;;15.10;4.80;;;11.70;90.30;;;;;;5100161;28;20031;-78
2021/11/09 02:37:05;;;;;;;20.65;3.78;;;11.60;90.30;;;;;;5101391;28;20466;-78
2021/11/09 02:39:31;;;;;;;7.88;3.75;;;11.60;90.30;;;;;;5104392;28;20077;-77
2021/11/09 02:41:57;;;;;;;11.07;3.88;;;11.60;90.30;;;;;;5096426;28;20036;-78
2021/11/09 02:44:26;;;;;;;11.30;3.75;;;11.50;90.30;;;;;;5096568;28;20024;-78
2021/11/09 02:46:54;;;;;;;15.93;3.70;;;11.50;90.30;;;;;;5100765;28;20032;-78
2021/11/09 02:49:27;;;;;;;13.02;4.05;;;11.50;90.30;;;;;;5100612;28;20133;-78
2021/11/09 02:52:01;;;;;;;16.75;4.47;;;11.50;90.30;;;;;;5107141;28;20036;-78
2021/11/09 02:54:31;;;;;;;11.23;4.40;;;11.50;90.30;;;;;;5108750;28;20047;-78
2021/11/09 02:57:00;;;;;;;13.05;4.10;;;11.50;90.20;;;;;;5095213;28;20039;-78
2021/11/09 03:02:00;;;;;;;10.18;3.55;;;11.50;90.20;;;;;;5096692;28;20040;-77
2021/11/09 03:04:40;;;;;;;12.18;4.90;;;11.50;90.10;;;;;;5094714;28;20144;-77
2021/11/09 03:07:11;;;;;;;16.65;4.20;;;11.50;90.20;;;;;;5097256;28;20478;-78
2021/11/09 03:09:49;;;;;;;12.40;4.38;;;11.40;90.10;;;;;;5106836;28;20032;-79
2021/11/09 03:12:15;;;;;;;19.98;4.13;;;11.40;90.10;;;;;;5105720;28;20031;-78
2021/11/09 03:14:42;;;;;;;8.25;3.47;;;11.30;90.10;;;;;;5101474;28;20028;-78
2021/11/09 03:17:34;;;;;;;20.23;4.47;;;11.30;90.10;;;;;;5100288;28;20035;-78
2021/11/09 03:20:00;;;;;;;14.75;3.42;;;11.30;90.20;;;;;;5098360;28;20455;-78
2021/11/09 03:47:27;;;;;;;10.05;3.25;;;11.00;90.30;;;;;;5031667;28;20120;-79
2021/11/09 03:49:54;;;;;;;15.93;3.80;;;11.00;90.30;;;;;;5088026;28;20111;-78
2021/11/09 03:52:25;;;;;;;12.77;3.67;;;11.00;90.30;;;;;;5099685;28;20558;-79
2021/11/09 03:55:00;;;;;;;14.77;4.00;;;11.00;90.40;;;;;;5106104;28;20051;-78
2021/11/09 03:57:33;;;;;;;;;;;10.90;90.40;;;;;;5095867;28;20028;-79
2021/11/09 04:02:31;;;;;;;13.57;3.45;;;10.90;90.30;;;;;;5109076;28;20028;-78
2021/11/09 04:05:00;;;;;;;12.15;3.75;;;10.80;90.50;;;;;;5095806;28;20028;-78
2021/11/09 04:10:15;;;;;;;13.70;4.53;;;10.80;90.40;;;;;;5095204;28;20386;-78
2021/11/09 04:15:48;;;;;;;14.27;3.08;;;10.80;90.40;;;;;;5094741;28;20032;-78
2021/11/09 04:24:07;;;;;;;11.88;3.80;;;10.70;90.40;;;;;;5097777;28;20046;-78
2021/11/09 04:29:39;;;;;;;14.00;4.00;;;10.60;90.50;;;;;;5102917;28;20020;-79
2021/11/09 04:53:53;;;;;;;14.18;3.63;;;10.40;90.40;;;;;;5098434;28;20047;-78
2021/11/09 05:01:11;;;;;;;17.48;3.75;;;10.40;90.40;;;;;;5107225;28;20031;-78
2021/11/09 05:02:10;;;;;;;15.98;3.97;;;10.40;90.40;;;;;;5093642;28;20045;-78
2021/11/09 05:10:10;;;;;;;10.80;3.05;;;10.40;90.40;;;;;;5097492;28;20024;-80
2021/11/09 05:12:36;;;;;;;4.47;1.88;;;10.30;90.40;;;;;;5098781;28;20023;-80
2021/11/09 05:15:02;;;;;;;10.27;2.67;;;10.40;90.40;;;;;;5094835;28;20040;-80
2021/11/09 05:17:28;;;;;;;8.07;2.65;;;10.30;90.40;;;;;;5103686;28;20580;-80
2021/11/09 05:19:54;;;;;;;2.25;0.98;;;10.30;90.40;;;;;;5096589;28;20053;-80
2021/11/09 05:22:19;;;;;;;12.07;3.88;;;10.30;90.40;;;;;;5101074;28;20101;-80
2021/11/09 05:24:45;;;;;;;17.52;4.55;;;10.30;90.40;;;;;;5094156;28;20027;-82
2021/11/09 05:27:15;;;;;;;19.15;3.80;;;10.30;90.40;;;;;;5094635;28;20445;-80
2021/11/09 05:29:44;;;;;;;14.77;2.45;;;10.20;90.40;;;;;;5097889;28;20455;-79
2021/11/09 05:32:09;;;;;;;11.35;2.53;;;10.20;90.40;;;;;;5091547;28;20497;-82
2021/11/09 05:34:36;;;;;;;11.10;3.10;;;10.20;90.40;;;;;;5095271;28;20059;-81
2021/11/09 05:37:08;;;;;;;8.77;2.60;;;10.20;90.40;;;;;;5095983;28;20036;-81
2021/11/09 05:39:49;;;;;;;13.50;3.95;;;10.20;90.40;;;;;;5103362;28;20027;-80
2021/11/09 05:42:14;;;;;;;16.98;3.65;;;10.20;90.40;;;;;;5106874;28;20102;-80
2021/11/09 05:44:42;;;;;;;22.40;4.35;;;10.10;90.40;;;;;;5097580;28;20051;-80
2021/11/09 05:47:08;;;;;;;2.13;1.50;;;10.10;90.40;;;;;;5094419;28;20034;-80
2021/11/09 05:49:34;;;;;;;8.73;3.10;;;10.10;90.50;;;;;;5102190;28;20024;-78
2021/11/09 05:52:03;;;;;;;3.95;1.25;;;10.10;90.50;;;;;;5102381;28;20459;-78
2021/11/09 05:54:29;;;;;;;7.88;3.00;;;10.10;90.40;;;;;;5100017;28;20078;-77
2021/11/09 05:56:55;;;;;;;19.45;4.25;;;10.10;90.40;;;;;;5098629;28;20066;-78
2021/11/09 05:59:21;;;;;;;12.68;3.72;;;10.10;90.50;;;;;;5099011;28;20069;-78
2021/11/09 06:01:47;;;;;;;15.93;5.10;;;10.10;90.50;;;;;;5103928;28;20031;-78
2021/11/09 06:04:14;;;;;;;8.95;3.20;;;10.00;90.50;;;;;;5096720;28;20031;-79
2021/11/09 06:06:40;;;;;;;19.55;5.22;;;10.00;90.50;;;;;;5097434;28;20114;-79
2021/11/09 06:09:06;;;;;;;12.45;3.00;;;9.90;90.40;;;;;;5099921;28;20028;-78
2021/11/09 06:11:31;;;;;;;16.92;4.28;;;10.00;90.50;;;;;;5097770;28;20024;-77
2021/11/09 06:13:57;;;;;;;7.55;2.53;;;10.00;90.50;;;;;;5091366;28;20039;-77
2021/11/09 06:16:23;;;;;;;11.57;3.45;;;10.00;90.50;;;;;;5101305;28;20338;-79
2021/11/09 06:18:54;;;;;;;17.10;3.55;;;9.90;90.40;;;;;;5096908;28;20024;-79
2021/11/09 06:21:20;;;;;;;18.33;4.65;;;9.90;90.50;;;;;;5101645;28;20027;-80
2021/11/09 06:23:45;;;;;;;7.05;2.88;;;9.90;90.40;;;;;;5101381;28;20039;-83
2021/11/09 06:26:11;;;;;;;25.05;4.90;;;9.90;90.50;;;;;;5091227;28;20055;-78
2021/11/09 06:28:39;;;;;;;21.77;4.18;;;9.90;90.50;;;;;;5089885;28;20028;-77
2021/11/09 06:31:07;;;;;;;15.90;3.85;;;9.90;90.50;;;;;;5093639;28;20127;-78
2021/11/09 06:33:33;;;;;;;16.80;4.63;;;9.90;90.50;;;;;;5088487;28;20112;-80
2021/11/09 06:35:58;;;;;;;18.80;4.40;;;9.80;90.50;;;;;;5097793;28;20051;-79
2021/11/09 06:38:25;;;;;;;4.88;1.98;;;9.90;90.50;;;;;;5092704;28;20021;-77
2021/11/09 06:40:51;;;;;;;11.02;3.13;;;9.80;90.50;;;;;;5093926;28;20039;-77
2021/11/09 06:43:17;;;;;;;24.55;5.30;;;9.80;90.50;;;;;;5107407;28;20062;-78
2021/11/09 06:45:43;;;;;;;19.17;5.35;;;9.80;90.60;;;;;;5103426;28;20073;-79
2021/11/09 06:48:09;;;;;;;15.85;5.00;;;9.80;90.60;;;;;;5099851;28;20069;-74
2021/11/09 06:50:35;;;;;;;26.23;5.93;;;9.80;90.60;;;;;;5095869;28;20438;-79
2021/11/09 06:53:02;;;;;;;14.65;4.47;;;9.70;90.60;;;;;;5095211;28;20035;-79
2021/11/09 06:55:27;;;;;;;22.38;5.47;;;9.70;90.60;;;;;;5093710;28;20044;-79
2021/11/09 06:57:53;;;;;;;19.20;5.00;;;9.70;90.60;;;;;;5090905;28;20063;-79
2021/11/09 07:00:24;;;;;;;10.27;3.40;;;9.70;90.60;;;;;;5096312;28;20064;-79
2021/11/09 07:02:51;;;;;;;22.23;4.38;;;9.60;90.60;;;;;;5100302;28;20028;-79
2021/11/09 07:05:22;;;;;;;10.00;3.97;;;9.70;90.60;;;;;;5096131;28;20126;-80
2021/11/09 07:07:48;;;;;;;16.52;4.45;;;9.70;90.60;;;;;;5091264;28;20031;-80
2021/11/09 07:10:17;;;;;;;8.98;2.13;;;9.60;90.60;;;;;;5095351;28;20032;-79
2021/11/09 07:12:43;;;;;;;6.13;3.30;;;9.70;90.60;;;;;;5109914;28;20069;-80
2021/11/09 07:15:10;;;;;;;21.30;5.45;;;9.60;90.70;;;;;;5102542;28;20410;-80
2021/11/09 07:17:39;;;;;;;17.73;5.80;;;9.60;90.70;;;;;;5096952;28;20059;-81
2021/11/09 07:20:09;;;;;;;12.90;3.75;;;9.60;90.70;;;;;;5100306;28;20383;-81
2021/11/09 07:22:35;;;;;;;26.35;6.05;;;9.60;90.70;;;;;;5101231;28;20024;-80
2021/11/09 07:25:02;;;;;;;20.77;5.30;;;9.60;90.70;;;;;;5100969;28;20467;-81
2021/11/09 07:27:28;;;;;;;21.55;5.13;;;9.60;90.70;;;;;;5103546;28;20031;-88
2021/11/09 07:29:54;;;;;;;11.80;3.55;;;9.60;90.70;;;;;;5110927;28;20030;-79
2021/11/09 07:32:21;;;;;;;13.75;4.13;;;9.60;90.70;;;;;;5112844;28;20049;-80
2021/11/09 07:34:47;;;;;;;37.45;7.72;;;9.60;90.70;;;;;;5109227;28;20038;-79
2021/11/09 07:37:13;;;;;;;21.17;7.10;;;9.60;90.70;;;;;;5094837;28;20032;-80
2021/11/09 07:39:40;;;;;;;17.52;4.68;;;9.60;90.70;;;;;;5104258;28;20531;-79
2021/11/09 07:42:06;;;;;;;14.02;5.50;;;9.60;90.60;;;;;;5107947;28;20035;-80
2021/11/09 07:44:32;;;;;;;23.75;6.15;;;9.60;90.60;;;;;;5101643;28;20042;-80
2021/11/09 07:46:57;;;;;;;24.05;3.80;;;9.60;90.60;;;;;;5109599;28;20425;-80
2021/11/09 07:49:24;;;;;;;12.00;3.10;;;9.60;90.60;;;;;;5109195;28;20036;-78
2021/11/09 07:51:50;;;;;;;9.40;2.15;;;9.60;90.60;;;;;;5101961;28;20039;-79
2021/11/09 07:54:26;;;;;;;15.68;4.95;;;9.60;90.60;;;;;;5104046;28;20051;-80
2021/11/09 07:57:00;;;;;;;13.75;3.55;;;9.60;90.60;;;;;;5095005;28;20602;-79
2021/11/09 07:59:33;;;;;;;12.05;3.88;;;9.60;90.70;;;;;;5094860;28;20059;-80
2021/11/09 08:02:11;;;;;;;20.48;5.72;;;9.60;90.80;;;;;;5106455;28;20061;-79
2021/11/09 08:05:18;;;;;;;9.75;3.13;;;9.60;90.80;;;;;;5094217;28;20472;-80
2021/11/09 08:07:29;;;;;;;8.25;3.08;;;9.50;90.90;;;;;;5089712;28;20036;-80
2021/11/09 08:09:55;;;;;;;5.50;2.60;;;9.50;91.00;;;;;;5094823;28;20024;-80
2021/11/09 08:12:21;;;;;;;9.27;3.28;;;9.50;91.10;;;;;;5094154;28;20035;-80
2021/11/09 08:14:46;;;;;;;10.20;3.83;;;9.50;91.20;;;;;;5106088;28;20487;-79
2021/11/09 08:17:14;;;;;;;1.42;1.15;;;9.50;91.30;;;;;;5095572;28;20028;-80
2021/11/09 08:19:40;;;;;;;7.65;2.22;;;9.40;91.40;;;;;;5075987;28;20035;-80
2021/11/09 08:22:06;;;;;;;9.43;3.97;;;9.40;91.50;;;;;;5105048;28;20348;-80
2021/11/09 08:24:32;;;;;;;15.82;4.63;;;9.50;91.60;;;;;;5103836;28;20035;-80
2021/11/09 08:27:00;;;;;;;4.45;2.70;;;9.40;91.60;;;;;;5093921;28;20035;-80
2021/11/09 08:29:26;;;;;;;4.90;2.50;;;9.40;91.60;;;;;;5106776;28;20031;-80
2021/11/09 08:31:54;;;;;;;13.57;2.83;;;9.40;91.60;;;;;;5108733;28;20050;-79
2021/11/09 08:34:20;;;;;;;8.23;3.85;;;9.50;91.70;;;;;;5093795;28;20031;-81
2021/11/09 08:36:47;;;;;;;9.20;4.32;;;9.50;91.70;;;;;;5095343;28;20382;-80
2021/11/09 08:39:20;;;;;;;2.35;1.52;;;9.60;91.70;;;;;;5106155;28;20127;-80
2021/11/09 08:41:52;;;;;;;13.07;4.50;;;9.60;91.80;;;;;;5105954;28;20031;-80
2021/11/09 08:44:20;;;;;;;8.35;2.65;;;9.60;91.80;;;;;;5095544;28;20068;-81
2021/11/09 08:46:56;;;;;;;12.93;3.15;;;9.50;91.90;;;;;;5107702;28;20043;-81
2021/11/09 08:49:24;;;;;;;21.13;4.57;;;9.60;92.00;;;;;;5097523;28;20027;-79
2021/11/09 08:51:52;;;;;;;10.70;3.42;;;9.60;92.10;;;;;;5100805;28;20089;-80
2021/11/09 08:54:36;;;;;;;8.07;3.20;;;9.60;92.10;;;;;;5105250;28;20119;-81
2021/11/09 08:57:32;;;;;;;14.05;3.55;;;9.60;92.10;;;;;;5093406;28;20046;-80
2021/11/09 09:05:27;;;;;;;18.75;4.28;;;9.60;92.30;;;;;;5094517;28;20379;-77
2021/11/09 09:07:53;;;;;;;11.27;3.67;;;9.60;92.30;;;;;;5096842;28;20032;-79
2021/11/09 09:10:19;;;;;;;21.23;4.70;;;9.70;92.40;;;;;;5094680;28;20040;-80
2021/11/09 09:12:45;;;;;;;7.10;2.85;;;9.70;92.50;;;;;;5095430;28;20028;-81
2021/11/09 09:15:14;;;;;;;7.72;3.45;;;9.70;92.50;;;;;;5095966;28;20040;-79
2021/11/09 09:17:40;;;;;;;7.03;2.83;;;9.70;92.60;;;;;;5095009;28;20535;-79
2021/11/09 09:20:23;;;;;;;21.80;5.25;;;9.70;92.70;;;;;;5093033;28;20111;-79
2021/11/09 09:25:43;;;;;;;12.45;4.05;;;9.80;92.80;;;;;;5108081;28;20043;-79
2021/11/09 09:30:56;;;;;;;9.02;2.47;;;9.80;93.00;;;;;;5093221;28;20028;-80
2021/11/09 09:33:40;;;;;;;11.30;3.35;;;9.80;93.10;;;;;;5104449;28;20054;-80
2021/11/09 09:57:54;;;;;;;13.57;4.78;;;10.00;93.30;;;;;;5096243;28;20032;-80
2021/11/09 10:00:20;;;;;;;20.35;5.20;;;10.10;93.40;;;;;;5096794;28;20035;-79
2021/11/09 10:02:53;;;;;;;7.60;3.10;;;10.10;93.30;;;;;;5109800;28;20106;-79
2021/11/09 10:05:20;;;;;;;7.38;2.72;;;10.10;93.30;;;;;;5097485;28;20028;-81
2021/11/09 10:07:52;;;;;;;6.85;3.53;;;10.20;93.40;;;;;;5104999;28;20119;-79
2021/11/09 10:10:25;;;;;;;11.55;3.42;;;10.20;93.40;;;;;;5104220;28;20364;-80
2021/11/09 10:12:57;;;;;;;8.25;4.07;;;10.20;93.40;;;;;;5107916;28;20030;-79
2021/11/09 10:15:27;;;;;;;19.08;3.33;;;10.20;93.40;;;;;;5108807;28;20051;-81
2021/11/09 10:18:03;;;;;;;8.55;2.60;;;10.30;93.40;;;;;;5105511;28;20024;-80
2021/11/09 10:20:36;;;;;;;15.38;3.22;;;10.30;93.40;;;;;;5098808;28;20057;-79
2021/11/09 10:23:08;;;;;;;11.05;3.38;;;10.40;93.40;;;;;;5100208;28;20023;-79
2021/11/09 10:25:35;;;;;;;7.38;3.03;;;10.40;93.40;;;;;;5097781;28;20521;-80
2021/11/09 10:28:07;;;;;;;7.50;3.17;;;10.50;93.40;;;;;;5104435;28;20027;-82
2021/11/09 10:30:40;;;;;;;9.93;3.95;;;10.50;93.40;;;;;;5106394;28;20467;-79
2021/11/09 10:33:10;;;;;;;5.90;2.75;;;10.60;93.40;;;;;;5091927;28;20024;-79
2021/11/09 10:35:35;;;;;;;13.35;4.60;;;10.60;93.40;;;;;;5097622;28;20510;-78
2021/11/09 10:38:03;;;;;;;12.65;3.90;;;10.70;93.50;;;;;;5097744;28;20028;-80
2021/11/09 10:40:37;;;;;;;4.75;2.17;;;10.70;93.50;;;;;;5106222;28;20024;-82
2021/11/09 10:43:06;;;;;;;15.90;5.18;;;10.70;93.50;;;;;;5092998;28;20336;-74
2021/11/09 10:45:35;;;;;;;10.52;3.95;;;10.70;93.50;;;;;;5105293;28;20036;-82
2021/11/09 10:48:05;;;;;;;9.05;4.05;;;10.80;93.60;;;;;;5103848;28;20055;-82
2021/11/09 10:50:35;;;;;;;10.18;3.95;;;10.80;93.70;;;;;;5095205;28;20027;-78
2021/11/09 10:53:04;;;;;;;8.23;3.22;;;10.80;93.70;;;;;;5081619;28;20048;-81
2021/11/09 10:55:49;;;;;;;18.95;4.55;;;10.80;93.70;;;;;;5095735;28;20131;-81
2021/11/09 11:06:17;;;;;;;8.30;3.45;;;10.90;93.80;;;;;;5100995;28;20473;-79
2021/11/09 11:08:44;;;;;;;;;;;11.00;93.90;;;;;;5102863;28;20032;-79
2021/11/09 11:11:18;;;;;;;14.95;5.65;;;11.00;93.90;;;;;;5104054;28;19919;-79
2021/11/09 11:13:45;;;;;;;7.32;3.13;;;11.00;93.90;;;;;;5106109;28;20036;-79
2021/11/09 11:16:18;;;;;;;14.55;4.43;;;11.00;94.00;;;;;;5103471;28;20076;-79
2021/11/09 11:18:47;;;;;;;20.30;4.95;;;11.10;94.00;;;;;;5105384;28;20032;-79
2021/11/09 11:21:16;;;;;;;12.15;4.93;;;11.10;94.10;;;;;;5101119;28;20032;-79
2021/11/09 11:23:44;;;;;;;5.85;2.67;;;11.10;94.10;;;;;;5102869;28;20091;-79
2021/11/09 11:26:11;;;;;;;11.20;3.90;;;11.10;94.10;;;;;;5104043;28;20064;-79
2021/11/09 11:28:38;;;;;;;19.63;5.22;;;11.20;94.20;;;;;;5101174;28;20047;-79
2021/11/09 11:31:05;;;;;;;10.43;4.07;;;11.20;94.10;;;;;;5102750;28;20036;-80
2021/11/09 11:33:32;;;;;;;13.05;3.83;;;11.30;94.10;;;;;;5102095;28;20016;-80
2021/11/09 11:35:57;;;;;;;10.57;3.50;;;11.40;94.10;;;;;;5105314;28;20046;-78
2021/11/09 11:38:23;;;;;;;5.38;2.15;;;11.40;94.10;;;;;;5102395;28;20032;-79
2021/11/09 11:40:54;;;;;;;12.45;4.45;;;11.50;94.10;;;;;;5101327;28;20032;-79
2021/11/09 11:43:43;;;;;;;8.63;3.53;;;11.50;94.00;;;;;;5105875;28;20391;-78
2021/11/09 11:46:13;;;;;;;11.18;4.43;;;11.50;94.00;;;;;;5096398;28;20792;-78
2021/11/09 11:49:00;;;;;;;7.35;3.40;;;11.60;94.00;;;;;;5103151;28;20028;-78
2021/11/09 11:51:32;;;;;;;21.20;5.63;;;11.60;94.00;;;;;;5101814;28;20055;-78
2021/11/09 11:53:58;;;;;;;2.50;1.80;;;11.60;93.90;;;;;;5101408;28;20056;-79
2021/11/09 11:56:48;;;;;;;6.40;2.45;;;11.60;93.90;;;;;;5098561;28;20109;-80
2021/11/09 11:59:23;;;;;;;5.15;2.58;;;11.70;94.00;;;;;;5094801;28;20414;-79
2021/11/09 12:01:55;;;;;;;9.68;3.47;;;11.70;94.00;;;;;;5100034;28;20050;-77
2021/11/09 12:04:39;;;;;;;19.55;5.20;;;11.70;94.10;;;;;;5094184;28;20143;-70
2021/11/09 12:07:15;;;;;;;9.13;4.63;;;11.70;94.00;;;;;;5096204;28;20024;-77
2021/11/09 12:09:43;;;;;;;15.07;4.68;;;11.70;94.00;;;;;;5096927;28;20031;-78
2021/11/09 12:12:14;;;;;;;17.13;5.35;;;11.70;94.00;;;;;;5102300;28;20035;-79
2021/11/09 12:15:04;;;;;;;14.88;5.32;;;11.80;94.10;;;;;;5101664;28;20506;-79
2021/11/09 12:17:42;;;;;;;7.40;3.47;;;11.70;94.10;;;;;;5103259;28;20035;-79
2021/11/09 12:20:09;;;;;;;15.57;5.20;;;11.80;94.40;;;;;;5101206;28;20044;-79
2021/11/09 12:22:49;;;;;;;19.52;5.57;;;11.80;94.10;;;;;;5099677;28;20934;-79
2021/11/09 12:25:35;;;;;;;19.42;5.68;;;11.90;94.20;;;;;;5104571;28;20028;-78
2021/11/09 12:28:12;;;;;;;14.88;5.43;;;11.80;94.10;;;;;;5101938;28;20111;-79
2021/11/09 12:30:41;;;;;;;20.30;5.30;;;11.90;94.20;;;;;;5103508;28;20114;-79
2021/11/09 12:33:16;;;;;;;21.20;4.88;;;11.90;94.20;;;;;;5092840;28;20118;-79
2021/11/09 12:36:05;;;;;;;11.75;5.30;;;11.90;94.30;;;;;;5106741;28;20089;-78
2021/11/09 12:38:36;;;;;;;16.73;4.60;;;11.90;94.30;;;;;;5101981;28;20036;-78
2021/11/09 12:41:20;;;;;;;6.35;3.50;;;11.90;94.30;;;;;;5093363;28;20067;-79
2021/11/09 12:43:50;;;;;;;7.38;3.00;;;11.90;94.30;;;;;;5099942;28;20043;-78
2021/11/09 12:46:25;;;;;;;13.75;5.07;;;11.90;94.30;;;;;;5101776;28;20036;-79
2021/11/09 12:49:14;;;;;;;13.02;4.22;;;12.00;94.30;;;;;;5098438;28;20056;-78
2021/11/09 12:51:41;;;;;;;10.63;4.85;;;12.00;94.30;;;;;;5104253;28;20451;-79
2021/11/09 12:54:16;;;;;;;12.07;4.15;;;12.00;94.30;;;;;;5099722;28;20061;-79
2021/11/09 12:56:43;;;;;;;13.32;2.85;;;12.10;94.30;;;;;;5104109;28;20479;-78
2021/11/09 12:59:40;;;;;;;9.77;3.45;;;12.10;94.20;;;;;;5102851;28;20039;-79
2021/11/09 13:07:46;;;;;;;10.00;3.75;;;12.20;94.20;;;;;;5093509;28;20036;-80
2021/11/09 13:10:17;;;;;;;4.82;2.63;;;12.20;94.10;;;;;;5092944;28;20032;-79
2021/11/09 13:12:43;;;;;;;7.43;2.08;;;12.20;94.10;;;;;;5106391;28;20084;-79
2021/11/09 13:15:18;;;;;;;5.32;2.47;;;12.30;94.10;;;;;;5111563;28;20746;-79
2021/11/09 13:17:51;;;;;;;9.35;2.90;;;12.30;94.10;;;;;;5100697;28;20060;-78
2021/11/09 13:23:23;;;;;;;10.27;3.78;;;12.30;94.10;;;;;;5111376;28;20084;-78
2021/11/09 13:25:54;;;;;;;5.10;3.28;;;12.40;94.00;;;;;;5107394;28;20054;-79
2021/11/09 13:28:36;;;;;;;21.52;4.80;;;12.40;94.10;;;;;;5106243;28;20102;-78
2021/11/09 13:31:07;;;;;;;16.27;3.95;;;12.40;94.30;;;;;;5093769;28;20028;-77
2021/11/09 13:33:41;;;;;;;16.63;4.43;;;12.40;94.10;;;;;;5091561;28;20124;-77
2021/11/09 13:36:08;;;;;;;9.50;3.25;;;12.40;94.10;;;;;;5092632;28;20036;-78
2021/11/09 13:38:40;;;;;;;14.63;4.95;;;12.40;94.10;;;;;;5103074;28;20024;-77
2021/11/09 13:41:18;;;;;;;19.08;5.10;;;12.50;94.10;;;;;;5105691;28;20040;-77
2021/11/09 13:43:51;;;;;;;10.63;3.15;;;12.50;94.10;;;;;;5106787;28;20030;-77
2021/11/09 13:46:20;;;;;;;7.47;3.08;;;12.50;94.00;;;;;;5099154;28;20101;-76
2021/11/09 13:48:51;;;;;;;27.83;6.07;;;12.60;94.00;;;;;;5101970;28;20546;-87
2021/11/09 13:51:25;;;;;;;17.67;3.08;;;12.60;94.00;;;;;;5100255;28;20086;-76
2021/11/09 13:53:56;;;;;;;13.35;3.42;;;12.60;94.00;;;;;;5099906;28;20056;-77
2021/11/09 13:56:27;;;;;;;10.07;3.28;;;12.60;93.90;;;;;;5094027;28;20126;-76
2021/11/09 13:58:55;;;;;;;5.28;2.05;;;12.70;93.90;;;;;;5101863;28;20020;-76
2021/11/09 14:02:15;;;;;;;13.07;4.05;;;12.70;93.90;;;;;;5093856;28;20036;-76
2021/11/09 14:15:16;;;;;;;24.27;3.85;;;12.80;93.70;;;;;;5101467;28;20394;-77
2021/11/09 14:17:42;;;;;;;18.40;4.70;;;12.80;93.70;;;;;;5095763;28;20102;-77
2021/11/09 14:20:11;;;;;;;7.97;2.67;;;12.80;93.70;;;;;;5099198;28;20065;-77
2021/11/09 14:22:37;;;;;;;6.20;2.25;;;12.80;93.70;;;;;;5098105;28;20020;-74
2021/11/09 14:25:06;;;;;;;9.35;3.45;;;12.80;93.70;;;;;;5095834;28;20495;-69
2021/11/09 14:27:39;;;;;;;7.20;2.72;;;12.90;93.70;;;;;;5092710;28;20020;-77
2021/11/09 14:30:07;;;;;;;12.95;3.45;;;12.90;93.60;;;;;;5095834;28;20479;-78
2021/11/09 14:32:36;;;;;;;6.68;2.20;;;12.90;93.50;;;;;;5095736;28;20031;-77
2021/11/09 14:37:43;;;;;;;1.83;1.30;;;12.90;93.50;;;;;;5099817;28;20077;-77
2021/11/09 14:40:12;;;;;;;17.00;4.05;;;12.90;93.50;;;;;;5097409;28;20564;-78
2021/11/09 14:45:25;;;;;;;5.00;2.35;;;13.00;93.50;;;;;;5102788;28;20118;-77
2021/11/09 14:48:06;;;;;;;6.25;2.58;;;13.00;93.50;;;;;;5100567;28;20016;-78
2021/11/09 14:53:57;;;;;;;7.85;2.42;;;13.00;93.50;;;;;;5073672;28;20539;-77
2021/11/09 14:56:35;;;;;;;6.80;2.15;;;12.90;93.40;;;;;;5099365;28;20039;-78
2021/11/09 14:59:06;;;;;;;7.95;3.05;;;13.00;93.40;;;;;;5099740;28;20020;-77
2021/11/09 15:04:26;;;;;;;14.77;3.47;;;12.90;93.40;;;;;;5100528;28;20379;-77
2021/11/09 15:13:08;;;;;;;5.80;2.38;;;13.00;93.40;;;;;;5097026;28;20038;-72
2021/11/09 15:26:20;;;;;;;29.25;4.05;;;13.00;93.30;;;;;;5104861;28;20101;-77
2021/11/09 15:28:49;;;;;;;16.25;3.72;;;13.10;93.20;;;;;;5099097;28;20034;-77
2021/11/09 15:31:21;;;;;;;5.90;1.35;;;13.00;93.20;;;;;;5105021;28;20039;-76
2021/11/09 15:33:55;;;;;;;19.77;4.95;;;13.10;93.20;;;;;;5102960;28;20480;-76
2021/11/09 15:38:48;;;;;;;9.35;3.70;;;13.10;93.20;;;;;;5106044;28;19908;-76
2021/11/09 15:41:15;;;;;;;19.45;5.03;;;13.10;93.10;;;;;;5100725;28;20063;-78
2021/11/09 15:43:41;;;;;;;6.57;2.65;;;13.00;93.10;;;;;;5105191;28;20111;-77